Aeroporto :
LOGIN :

Iscrizione | Disclaimer

   EN    FR    IT 

 










Sommario :    VFR   VFR Marginale   IFR   IFR Intensivo   IFR Molto Intensivo
Visibilità : 
Base nubi : 
>= 8 km
>= 3000ft
5 / 8 km
1000 / 3000 ft
1500m / 5 km
500 / 1000 ft
800 / 1500m
200 / 500 ft
< 800m
< 200 ft
Simboli :   Temporali  Nebbia  Neve Forte  Precipitazioni Forti  Vento > 20 kt
SIGMETs :   Varie  Temporali  Ghiacco  Turbolenza  Onda orograficha  Ceneri Vulcaniche







- Altitudine del aeroporto : 289 ft
- Codice IATA : ZAD


LDZD - Zadar

ULTIMO METAR :
  • 200100Z 14003KT 9999 FEW020 BKN050 14/13 Q1006

METARs OBSOLETI :
  • 200030Z 19003KT 160V230 9999 FEW020 BKN050 14/14 Q1006
  • 200000Z 18005KT 9999 FEW020 BKN050 14/14 Q1006
  • 192330Z 12005KT 8000 FEW020 BKN070 14/13 Q1006
  • 192300Z 13005KT 8000 FEW020 BKN070 13/13 Q1006
  • 192230Z 14004KT 110V170 8000 FEW012 SCT060 14/13 Q1006

TAF TAF LDZD
Valido dal 20 a 00 ore il 21 a 00 ore UTC


192325Z 2000/2100 14005KT 9999 BKN050 TX20/2013Z TN11/2005Z
PROB40
TEMPO 2000/2004 TSRA FEW025CB
PROB40
TEMPO 2010/2015 TSRA FEW035CB
PROB40 2011/2013 15012KT
BECMG 2015/2017 15006KT
Nessun NOTAM noto per questo aeroporto.



MetMap, La meteo Aeronautica in un colpo d'occhio ! - Copyright ORBIFLY Dicembre 2007 - Disclaimer

ORBIFLY MET'MAP TEAM :

Programmazione e sviluppo : Alexandra Zaïnal
Concezione e sviluppo : Baudouin d'Aumeries
Co-Programmazione e sviluppo : Marc-Olivier Méhu
Supporto tecnico e logistico : Manuel Goepfert
Aiuto per la traduzione : Arnaldo La Scala

Contatto : metmap@orbifly.com




FONTI E CREDITI :

   NOAA